sensor_id;sensor_type;location;lat;lon;timestamp;temperature;humidity
23267;DHT22;11802;53.160;8.214;2023-05-02T00:00:58;12.40;99.90
23267;DHT22;11802;53.160;8.214;2023-05-02T00:03:26;12.40;99.90
23267;DHT22;11802;53.160;8.214;2023-05-02T00:05:52;12.40;99.90
23267;DHT22;11802;53.160;8.214;2023-05-02T00:08:17;12.30;99.90
23267;DHT22;11802;53.160;8.214;2023-05-02T00:10:43;12.20;99.90
23267;DHT22;11802;53.160;8.214;2023-05-02T00:13:09;12.10;99.90
23267;DHT22;11802;53.160;8.214;2023-05-02T00:15:34;12.10;99.90
23267;DHT22;11802;53.160;8.214;2023-05-02T00:18:00;12.10;99.90
23267;DHT22;11802;53.160;8.214;2023-05-02T00:20:25;12.10;99.90
23267;DHT22;11802;53.160;8.214;2023-05-02T00:22:51;12.10;99.90
23267;DHT22;11802;53.160;8.214;2023-05-02T00:25:16;12.10;99.90
23267;DHT22;11802;53.160;8.214;2023-05-02T00:27:43;12.10;99.90
23267;DHT22;11802;53.160;8.214;2023-05-02T00:30:11;12.10;99.90
23267;DHT22;11802;53.160;8.214;2023-05-02T00:32:36;12.10;99.90
23267;DHT22;11802;53.160;8.214;2023-05-02T00:35:02;12.10;99.90
23267;DHT22;11802;53.160;8.214;2023-05-02T00:37:28;12.10;99.90
23267;DHT22;11802;53.160;8.214;2023-05-02T00:39:54;12.10;99.90
23267;DHT22;11802;53.160;8.214;2023-05-02T00:42:19;12.10;99.90
23267;DHT22;11802;53.160;8.214;2023-05-02T00:44:45;12.10;99.90
23267;DHT22;11802;53.160;8.214;2023-05-02T00:47:11;12.10;99.90
23267;DHT22;11802;53.160;8.214;2023-05-02T00:49:37;12.00;99.90
23267;DHT22;11802;53.160;8.214;2023-05-02T00:52:02;12.00;99.90
23267;DHT22;11802;53.160;8.214;2023-05-02T00:54:29;11.90;99.90
23267;DHT22;11802;53.160;8.214;2023-05-02T00:56:55;11.80;99.90
23267;DHT22;11802;53.160;8.214;2023-05-02T00:59:20;11.80;99.90
23267;DHT22;11802;53.160;8.214;2023-05-02T01:05:13;11.90;99.90
23267;DHT22;11802;53.160;8.214;2023-05-02T01:08:03;11.90;99.90
23267;DHT22;11802;53.160;8.214;2023-05-02T01:10:47;11.90;99.90
23267;DHT22;11802;53.160;8.214;2023-05-02T01:13:27;11.70;99.90
23267;DHT22;11802;53.160;8.214;2023-05-02T01:15:55;11.60;99.90
23267;DHT22;11802;53.160;8.214;2023-05-02T01:18:24;11.60;99.90
23267;DHT22;11802;53.160;8.214;2023-05-02T01:21:00;11.50;99.90
23267;DHT22;11802;53.160;8.214;2023-05-02T01:23:50;11.60;99.90
23267;DHT22;11802;53.160;8.214;2023-05-02T01:29:05;11.60;99.90
23267;DHT22;11802;53.160;8.214;2023-05-02T01:31:35;11.50;99.90
23267;DHT22;11802;53.160;8.214;2023-05-02T01:34:04;11.40;99.90
23267;DHT22;11802;53.160;8.214;2023-05-02T01:36:31;11.30;99.90
23267;DHT22;11802;53.160;8.214;2023-05-02T01:38:59;11.20;99.90
23267;DHT22;11802;53.160;8.214;2023-05-02T01:41:27;11.10;99.90
23267;DHT22;11802;53.160;8.214;2023-05-02T01:43:58;11.10;99.90
23267;DHT22;11802;53.160;8.214;2023-05-02T01:46:33;11.00;99.90
23267;DHT22;11802;53.160;8.214;2023-05-02T01:49:02;10.80;99.90
23267;DHT22;11802;53.160;8.214;2023-05-02T01:51:31;10.70;99.90
23267;DHT22;11802;53.160;8.214;2023-05-02T01:54:03;10.60;99.90
23267;DHT22;11802;53.160;8.214;2023-05-02T01:56:35;10.40;99.90
23267;DHT22;11802;53.160;8.214;2023-05-02T01:59:05;10.20;99.90
23267;DHT22;11802;53.160;8.214;2023-05-02T02:01:33;10.10;99.90
23267;DHT22;11802;53.160;8.214;2023-05-02T02:03:59;10.00;99.90
23267;DHT22;11802;53.160;8.214;2023-05-02T02:06:25;9.90;99.90
23267;DHT22;11802;53.160;8.214;2023-05-02T02:08:52;9.90;99.90
23267;DHT22;11802;53.160;8.214;2023-05-02T02:11:23;9.80;99.90
23267;DHT22;11802;53.160;8.214;2023-05-02T02:13:58;9.90;99.90
23267;DHT22;11802;53.160;8.214;2023-05-02T02:16:29;9.80;99.90
23267;DHT22;11802;53.160;8.214;2023-05-02T02:18:55;9.70;99.90
23267;DHT22;11802;53.160;8.214;2023-05-02T02:21:24;9.80;99.90
23267;DHT22;11802;53.160;8.214;2023-05-02T02:23:53;9.70;99.90
23267;DHT22;11802;53.160;8.214;2023-05-02T02:26:20;9.70;99.90
23267;DHT22;11802;53.160;8.214;2023-05-02T02:28:47;9.70;99.90
23267;DHT22;11802;53.160;8.214;2023-05-02T02:31:12;9.60;99.90
23267;DHT22;11802;53.160;8.214;2023-05-02T02:33:38;9.60;99.90
23267;DHT22;11802;53.160;8.214;2023-05-02T02:36:13;9.60;99.90
23267;DHT22;11802;53.160;8.214;2023-05-02T02:38:51;9.50;99.90
23267;DHT22;11802;53.160;8.214;2023-05-02T02:41:26;9.60;99.90
23267;DHT22;11802;53.160;8.214;2023-05-02T02:44:28;9.60;99.90
23267;DHT22;11802;53.160;8.214;2023-05-02T02:47:08;9.50;99.90
23267;DHT22;11802;53.160;8.214;2023-05-02T02:49:49;9.50;99.90
23267;DHT22;11802;53.160;8.214;2023-05-02T02:52:24;9.50;99.90
23267;DHT22;11802;53.160;8.214;2023-05-02T02:55:03;9.40;99.90
23267;DHT22;11802;53.160;8.214;2023-05-02T02:57:39;9.30;99.90
23267;DHT22;11802;53.160;8.214;2023-05-02T03:00:12;9.30;99.90
23267;DHT22;11802;53.160;8.214;2023-05-02T03:02:38;9.30;99.90
23267;DHT22;11802;53.160;8.214;2023-05-02T03:05:07;9.30;99.90
23267;DHT22;11802;53.160;8.214;2023-05-02T03:07:33;9.20;99.90
23267;DHT22;11802;53.160;8.214;2023-05-02T03:10:02;9.20;99.90
23267;DHT22;11802;53.160;8.214;2023-05-02T03:12:29;9.10;99.90
23267;DHT22;11802;53.160;8.214;2023-05-02T03:17:36;9.00;99.90
23267;DHT22;11802;53.160;8.214;2023-05-02T03:20:01;9.00;99.90
23267;DHT22;11802;53.160;8.214;2023-05-02T03:22:27;8.90;99.90
23267;DHT22;11802;53.160;8.214;2023-05-02T03:24:53;8.90;99.90
23267;DHT22;11802;53.160;8.214;2023-05-02T03:27:18;8.90;99.90
23267;DHT22;11802;53.160;8.214;2023-05-02T03:29:44;8.90;99.90
23267;DHT22;11802;53.160;8.214;2023-05-02T03:32:09;8.80;99.90
23267;DHT22;11802;53.160;8.214;2023-05-02T03:34:35;8.70;99.90
23267;DHT22;11802;53.160;8.214;2023-05-02T03:37:00;8.60;99.90
23267;DHT22;11802;53.160;8.214;2023-05-02T03:39:26;8.60;99.90
23267;DHT22;11802;53.160;8.214;2023-05-02T03:41:51;8.60;99.90
23267;DHT22;11802;53.160;8.214;2023-05-02T03:44:17;8.60;99.90
23267;DHT22;11802;53.160;8.214;2023-05-02T03:46:42;8.60;99.90
23267;DHT22;11802;53.160;8.214;2023-05-02T03:49:08;8.60;99.90
23267;DHT22;11802;53.160;8.214;2023-05-02T03:51:33;8.70;99.00
23267;DHT22;11802;53.160;8.214;2023-05-02T03:54:00;8.70;93.30
23267;DHT22;11802;53.160;8.214;2023-05-02T03:56:27;8.70;85.30
23267;DHT22;11802;53.160;8.214;2023-05-02T03:58:52;8.70;66.70
23267;DHT22;11802;53.160;8.214;2023-05-02T04:01:18;8.60;45.00
23267;DHT22;11802;53.160;8.214;2023-05-02T04:03:43;8.70;50.10
23267;DHT22;11802;53.160;8.214;2023-05-02T04:06:09;8.60;17.90
23267;DHT22;11802;53.160;8.214;2023-05-02T04:08:35;8.60;1.00
23267;DHT22;11802;53.160;8.214;2023-05-02T04:11:01;8.60;18.20
23267;DHT22;11802;53.160;8.214;2023-05-02T04:13:26;8.60;20.80
23267;DHT22;11802;53.160;8.214;2023-05-02T04:15:53;8.60;20.70
23267;DHT22;11802;53.160;8.214;2023-05-02T04:18:19;8.60;13.60
23267;DHT22;11802;53.160;8.214;2023-05-02T04:20:44;8.70;29.30
23267;DHT22;11802;53.160;8.214;2023-05-02T04:23:10;8.60;1.00
23267;DHT22;11802;53.160;8.214;2023-05-02T04:25:35;8.60;1.00
23267;DHT22;11802;53.160;8.214;2023-05-02T04:28:01;8.60;1.00
23267;DHT22;11802;53.160;8.214;2023-05-02T04:30:26;8.60;1.00
23267;DHT22;11802;53.160;8.214;2023-05-02T04:32:52;8.60;3.30
23267;DHT22;11802;53.160;8.214;2023-05-02T04:35:18;8.50;7.20
23267;DHT22;11802;53.160;8.214;2023-05-02T04:37:43;8.60;25.50
23267;DHT22;11802;53.160;8.214;2023-05-02T04:40:09;8.60;1.00
23267;DHT22;11802;53.160;8.214;2023-05-02T04:42:35;8.50;1.00
23267;DHT22;11802;53.160;8.214;2023-05-02T04:45:01;8.50;1.00
23267;DHT22;11802;53.160;8.214;2023-05-02T04:47:26;8.50;32.30
23267;DHT22;11802;53.160;8.214;2023-05-02T04:49:52;8.50;1.00
23267;DHT22;11802;53.160;8.214;2023-05-02T04:52:17;8.50;1.00
23267;DHT22;11802;53.160;8.214;2023-05-02T04:54:43;8.50;1.00
23267;DHT22;11802;53.160;8.214;2023-05-02T04:57:09;8.50;1.00
23267;DHT22;11802;53.160;8.214;2023-05-02T04:59:35;8.50;1.00
23267;DHT22;11802;53.160;8.214;2023-05-02T05:02:01;8.60;11.20
23267;DHT22;11802;53.160;8.214;2023-05-02T05:04:27;8.70;1.00
23267;DHT22;11802;53.160;8.214;2023-05-02T05:06:52;8.70;1.00
23267;DHT22;11802;53.160;8.214;2023-05-02T05:09:19;8.60;1.00
23267;DHT22;11802;53.160;8.214;2023-05-02T05:11:44;8.60;1.00
23267;DHT22;11802;53.160;8.214;2023-05-02T05:14:10;8.50;1.00
23267;DHT22;11802;53.160;8.214;2023-05-02T05:16:36;8.50;1.00
23267;DHT22;11802;53.160;8.214;2023-05-02T05:19:02;8.50;1.00
23267;DHT22;11802;53.160;8.214;2023-05-02T05:21:28;8.50;1.00
23267;DHT22;11802;53.160;8.214;2023-05-02T05:23:54;8.40;1.00
23267;DHT22;11802;53.160;8.214;2023-05-02T05:26:19;8.40;1.00
23267;DHT22;11802;53.160;8.214;2023-05-02T05:28:45;8.40;1.00
23267;DHT22;11802;53.160;8.214;2023-05-02T05:31:13;8.30;18.00
23267;DHT22;11802;53.160;8.214;2023-05-02T05:33:41;8.30;37.40
23267;DHT22;11802;53.160;8.214;2023-05-02T05:36:12;8.30;16.60
23267;DHT22;11802;53.160;8.214;2023-05-02T05:38:39;8.30;1.00
23267;DHT22;11802;53.160;8.214;2023-05-02T05:41:05;8.30;5.20
23267;DHT22;11802;53.160;8.214;2023-05-02T05:43:30;8.40;4.60
23267;DHT22;11802;53.160;8.214;2023-05-02T05:45:56;8.40;1.00
23267;DHT22;11802;53.160;8.214;2023-05-02T05:48:22;8.40;1.00
23267;DHT22;11802;53.160;8.214;2023-05-02T05:50:48;8.40;1.00
23267;DHT22;11802;53.160;8.214;2023-05-02T05:53:14;8.40;1.00
23267;DHT22;11802;53.160;8.214;2023-05-02T05:55:41;8.50;1.00
23267;DHT22;11802;53.160;8.214;2023-05-02T05:58:07;8.50;1.00
23267;DHT22;11802;53.160;8.214;2023-05-02T06:00:37;8.50;1.00
23267;DHT22;11802;53.160;8.214;2023-05-02T06:03:03;8.60;99.90
23267;DHT22;11802;53.160;8.214;2023-05-02T06:05:29;8.60;1.00
23267;DHT22;11802;53.160;8.214;2023-05-02T06:07:55;8.60;99.90
23267;DHT22;11802;53.160;8.214;2023-05-02T06:10:21;8.50;99.90
23267;DHT22;11802;53.160;8.214;2023-05-02T06:12:47;8.60;99.90
23267;DHT22;11802;53.160;8.214;2023-05-02T06:15:12;8.60;99.90
23267;DHT22;11802;53.160;8.214;2023-05-02T06:17:38;8.60;99.90
23267;DHT22;11802;53.160;8.214;2023-05-02T06:20:04;8.60;1.00
23267;DHT22;11802;53.160;8.214;2023-05-02T06:22:30;8.70;99.90
23267;DHT22;11802;53.160;8.214;2023-05-02T06:24:55;8.70;1.00
23267;DHT22;11802;53.160;8.214;2023-05-02T06:27:21;8.70;99.90
23267;DHT22;11802;53.160;8.214;2023-05-02T06:29:50;8.70;1.00
23267;DHT22;11802;53.160;8.214;2023-05-02T06:32:15;8.80;1.00
23267;DHT22;11802;53.160;8.214;2023-05-02T06:34:41;8.80;99.90
23267;DHT22;11802;53.160;8.214;2023-05-02T06:37:06;8.70;38.90
23267;DHT22;11802;53.160;8.214;2023-05-02T06:39:32;8.70;1.00
23267;DHT22;11802;53.160;8.214;2023-05-02T06:41:58;8.80;99.90
23267;DHT22;11802;53.160;8.214;2023-05-02T06:44:24;8.90;1.00
23267;DHT22;11802;53.160;8.214;2023-05-02T06:46:49;9.00;99.90
23267;DHT22;11802;53.160;8.214;2023-05-02T06:49:15;9.10;90.60
23267;DHT22;11802;53.160;8.214;2023-05-02T06:51:41;9.30;3.50
23267;DHT22;11802;53.160;8.214;2023-05-02T06:54:06;9.50;99.90
23267;DHT22;11802;53.160;8.214;2023-05-02T06:56:33;9.60;99.90
23267;DHT22;11802;53.160;8.214;2023-05-02T06:58:59;9.70;99.90
23267;DHT22;11802;53.160;8.214;2023-05-02T07:01:24;9.80;1.00
23267;DHT22;11802;53.160;8.214;2023-05-02T07:03:50;10.00;1.00
23267;DHT22;11802;53.160;8.214;2023-05-02T07:06:16;10.10;1.00
23267;DHT22;11802;53.160;8.214;2023-05-02T07:08:42;10.10;99.90
23267;DHT22;11802;53.160;8.214;2023-05-02T07:11:07;10.10;1.00
23267;DHT22;11802;53.160;8.214;2023-05-02T07:13:33;10.00;1.00
23267;DHT22;11802;53.160;8.214;2023-05-02T07:15:58;10.10;1.00
23267;DHT22;11802;53.160;8.214;2023-05-02T07:18:24;10.00;99.90
23267;DHT22;11802;53.160;8.214;2023-05-02T07:20:50;10.20;1.00
23267;DHT22;11802;53.160;8.214;2023-05-02T07:23:16;10.40;1.00
23267;DHT22;11802;53.160;8.214;2023-05-02T07:26:21;10.50;99.90
23267;DHT22;11802;53.160;8.214;2023-05-02T07:28:51;10.60;1.00
23267;DHT22;11802;53.160;8.214;2023-05-02T07:31:17;10.80;65.30
23267;DHT22;11802;53.160;8.214;2023-05-02T07:33:43;11.30;99.90
23267;DHT22;11802;53.160;8.214;2023-05-02T07:36:08;11.40;1.00
23267;DHT22;11802;53.160;8.214;2023-05-02T07:38:34;11.60;1.00
23267;DHT22;11802;53.160;8.214;2023-05-02T07:41:00;11.90;1.00
23267;DHT22;11802;53.160;8.214;2023-05-02T07:43:25;12.10;1.00
23267;DHT22;11802;53.160;8.214;2023-05-02T07:45:52;12.40;1.00
23267;DHT22;11802;53.160;8.214;2023-05-02T07:48:17;12.90;99.90
23267;DHT22;11802;53.160;8.214;2023-05-02T07:50:44;13.10;47.10
23267;DHT22;11802;53.160;8.214;2023-05-02T07:53:10;13.50;1.00
23267;DHT22;11802;53.160;8.214;2023-05-02T07:55:35;13.60;1.00
23267;DHT22;11802;53.160;8.214;2023-05-02T07:58:01;13.40;1.00
23267;DHT22;11802;53.160;8.214;2023-05-02T08:00:27;13.90;1.00
23267;DHT22;11802;53.160;8.214;2023-05-02T08:02:53;13.40;1.00
23267;DHT22;11802;53.160;8.214;2023-05-02T08:05:18;13.20;1.00
23267;DHT22;11802;53.160;8.214;2023-05-02T08:07:44;13.20;1.00
23267;DHT22;11802;53.160;8.214;2023-05-02T08:10:09;12.90;45.70
23267;DHT22;11802;53.160;8.214;2023-05-02T08:12:41;12.20;99.90
23267;DHT22;11802;53.160;8.214;2023-05-02T08:15:09;12.10;1.00
23267;DHT22;11802;53.160;8.214;2023-05-02T08:17:36;12.10;1.00
23267;DHT22;11802;53.160;8.214;2023-05-02T08:20:01;12.70;1.00
23267;DHT22;11802;53.160;8.214;2023-05-02T08:22:27;13.90;99.90
23267;DHT22;11802;53.160;8.214;2023-05-02T08:24:52;14.60;20.10
23267;DHT22;11802;53.160;8.214;2023-05-02T08:27:18;15.30;1.00
23267;DHT22;11802;53.160;8.214;2023-05-02T08:29:44;15.00;1.00
23267;DHT22;11802;53.160;8.214;2023-05-02T08:32:10;14.50;1.00
23267;DHT22;11802;53.160;8.214;2023-05-02T08:34:44;13.60;1.00
23267;DHT22;11802;53.160;8.214;2023-05-02T08:37:10;13.40;1.00
23267;DHT22;11802;53.160;8.214;2023-05-02T08:39:36;13.00;29.60
23267;DHT22;11802;53.160;8.214;2023-05-02T08:42:06;12.90;99.90
23267;DHT22;11802;53.160;8.214;2023-05-02T08:44:32;13.20;99.90
23267;DHT22;11802;53.160;8.214;2023-05-02T08:46:59;13.50;99.90
23267;DHT22;11802;53.160;8.214;2023-05-02T08:49:25;13.40;10.40
23267;DHT22;11802;53.160;8.214;2023-05-02T08:51:53;13.50;1.00
23267;DHT22;11802;53.160;8.214;2023-05-02T08:54:20;13.50;1.00
23267;DHT22;11802;53.160;8.214;2023-05-02T08:56:46;13.30;1.00
23267;DHT22;11802;53.160;8.214;2023-05-02T08:59:12;14.00;1.00
23267;DHT22;11802;53.160;8.214;2023-05-02T09:01:40;14.90;1.00
23267;DHT22;11802;53.160;8.214;2023-05-02T09:04:09;16.20;1.00
23267;DHT22;11802;53.160;8.214;2023-05-02T09:06:35;16.90;1.00
23267;DHT22;11802;53.160;8.214;2023-05-02T09:09:01;16.80;99.90
23267;DHT22;11802;53.160;8.214;2023-05-02T09:11:27;16.50;99.90
23267;DHT22;11802;53.160;8.214;2023-05-02T09:13:53;16.30;99.90
23267;DHT22;11802;53.160;8.214;2023-05-02T09:16:21;16.10;1.00
23267;DHT22;11802;53.160;8.214;2023-05-02T09:18:57;15.80;1.00
23267;DHT22;11802;53.160;8.214;2023-05-02T09:21:25;15.50;1.00
23267;DHT22;11802;53.160;8.214;2023-05-02T09:23:55;15.40;1.00
23267;DHT22;11802;53.160;8.214;2023-05-02T09:26:26;15.10;1.00
23267;DHT22;11802;53.160;8.214;2023-05-02T09:29:00;14.80;1.00
23267;DHT22;11802;53.160;8.214;2023-05-02T09:31:33;14.50;1.00
23267;DHT22;11802;53.160;8.214;2023-05-02T09:34:12;14.20;1.00
23267;DHT22;11802;53.160;8.214;2023-05-02T09:36:42;14.00;1.00
23267;DHT22;11802;53.160;8.214;2023-05-02T09:39:10;13.90;1.00
23267;DHT22;11802;53.160;8.214;2023-05-02T09:41:43;14.60;1.00
23267;DHT22;11802;53.160;8.214;2023-05-02T09:44:10;16.00;1.00
23267;DHT22;11802;53.160;8.214;2023-05-02T09:46:47;17.20;1.00
23267;DHT22;11802;53.160;8.214;2023-05-02T09:49:13;18.00;99.90
23267;DHT22;11802;53.160;8.214;2023-05-02T09:51:40;18.50;99.90
23267;DHT22;11802;53.160;8.214;2023-05-02T09:54:05;18.50;99.90
23267;DHT22;11802;53.160;8.214;2023-05-02T09:56:36;17.90;99.90
23267;DHT22;11802;53.160;8.214;2023-05-02T09:59:16;17.80;99.90
23267;DHT22;11802;53.160;8.214;2023-05-02T10:01:42;17.80;99.90
23267;DHT22;11802;53.160;8.214;2023-05-02T10:04:12;17.30;99.90
23267;DHT22;11802;53.160;8.214;2023-05-02T10:06:44;16.80;99.90
23267;DHT22;11802;53.160;8.214;2023-05-02T10:09:14;16.30;99.90
23267;DHT22;11802;53.160;8.214;2023-05-02T10:11:41;15.90;99.90
23267;DHT22;11802;53.160;8.214;2023-05-02T10:14:09;15.70;99.90
23267;DHT22;11802;53.160;8.214;2023-05-02T10:16:38;15.60;99.90
23267;DHT22;11802;53.160;8.214;2023-05-02T10:19:09;15.50;1.00
23267;DHT22;11802;53.160;8.214;2023-05-02T10:21:38;15.60;99.90
23267;DHT22;11802;53.160;8.214;2023-05-02T10:24:05;16.50;99.90
23267;DHT22;11802;53.160;8.214;2023-05-02T10:26:32;17.70;99.90
23267;DHT22;11802;53.160;8.214;2023-05-02T10:28:59;17.50;99.90
23267;DHT22;11802;53.160;8.214;2023-05-02T10:31:25;17.60;99.90
23267;DHT22;11802;53.160;8.214;2023-05-02T10:33:53;17.00;99.90
23267;DHT22;11802;53.160;8.214;2023-05-02T10:36:22;17.00;99.90
23267;DHT22;11802;53.160;8.214;2023-05-02T10:38:48;17.00;99.90
23267;DHT22;11802;53.160;8.214;2023-05-02T10:41:19;16.30;99.90
23267;DHT22;11802;53.160;8.214;2023-05-02T10:43:48;16.00;99.90
23267;DHT22;11802;53.160;8.214;2023-05-02T10:46:29;16.00;1.00
23267;DHT22;11802;53.160;8.214;2023-05-02T10:49:04;15.60;1.00
23267;DHT22;11802;53.160;8.214;2023-05-02T10:51:31;15.10;1.00
23267;DHT22;11802;53.160;8.214;2023-05-02T10:54:18;14.70;1.00
23267;DHT22;11802;53.160;8.214;2023-05-02T10:59:35;14.10;1.00
23267;DHT22;11802;53.160;8.214;2023-05-02T11:02:02;13.90;1.00
23267;DHT22;11802;53.160;8.214;2023-05-02T11:05:05;14.30;1.00
23267;DHT22;11802;53.160;8.214;2023-05-02T11:07:35;14.50;1.00
23267;DHT22;11802;53.160;8.214;2023-05-02T11:13:08;14.40;1.00
23267;DHT22;11802;53.160;8.214;2023-05-02T11:18:10;14.30;1.00
23267;DHT22;11802;53.160;8.214;2023-05-02T11:20:41;14.30;1.00
23267;DHT22;11802;53.160;8.214;2023-05-02T11:25:43;14.90;1.00
23267;DHT22;11802;53.160;8.214;2023-05-02T11:28:41;15.30;1.00
23267;DHT22;11802;53.160;8.214;2023-05-02T11:33:56;15.50;1.00
23267;DHT22;11802;53.160;8.214;2023-05-02T11:36:32;16.00;1.00
23267;DHT22;11802;53.160;8.214;2023-05-02T11:38:59;16.10;1.00
23267;DHT22;11802;53.160;8.214;2023-05-02T11:41:57;16.30;99.90
23267;DHT22;11802;53.160;8.214;2023-05-02T11:44:23;15.80;99.90
23267;DHT22;11802;53.160;8.214;2023-05-02T11:46:48;15.40;99.90
23267;DHT22;11802;53.160;8.214;2023-05-02T11:49:14;15.30;99.90
23267;DHT22;11802;53.160;8.214;2023-05-02T11:51:40;15.10;99.90
23267;DHT22;11802;53.160;8.214;2023-05-02T11:54:06;15.10;1.00
23267;DHT22;11802;53.160;8.214;2023-05-02T11:56:32;14.90;1.00
23267;DHT22;11802;53.160;8.214;2023-05-02T11:59:02;14.90;1.00
23267;DHT22;11802;53.160;8.214;2023-05-02T12:01:28;14.90;1.00
23267;DHT22;11802;53.160;8.214;2023-05-02T12:04:07;15.00;1.00
23267;DHT22;11802;53.160;8.214;2023-05-02T12:06:33;14.90;1.00
23267;DHT22;11802;53.160;8.214;2023-05-02T12:09:06;14.80;1.00
23267;DHT22;11802;53.160;8.214;2023-05-02T12:11:32;14.30;1.00
23267;DHT22;11802;53.160;8.214;2023-05-02T12:13:58;13.60;1.00
23267;DHT22;11802;53.160;8.214;2023-05-02T12:16:23;13.30;99.90
23267;DHT22;11802;53.160;8.214;2023-05-02T12:18:49;12.90;99.90
23267;DHT22;11802;53.160;8.214;2023-05-02T12:21:16;13.00;1.00
23267;DHT22;11802;53.160;8.214;2023-05-02T12:23:42;13.00;99.90
23267;DHT22;11802;53.160;8.214;2023-05-02T12:26:24;13.10;1.00
23267;DHT22;11802;53.160;8.214;2023-05-02T12:28:54;13.00;1.00
23267;DHT22;11802;53.160;8.214;2023-05-02T12:31:21;13.10;1.00
23267;DHT22;11802;53.160;8.214;2023-05-02T12:33:47;13.60;1.00
23267;DHT22;11802;53.160;8.214;2023-05-02T12:36:14;13.90;99.90
23267;DHT22;11802;53.160;8.214;2023-05-02T12:38:39;14.40;99.90
23267;DHT22;11802;53.160;8.214;2023-05-02T12:41:11;14.90;1.00
23267;DHT22;11802;53.160;8.214;2023-05-02T12:43:47;15.50;1.00
23267;DHT22;11802;53.160;8.214;2023-05-02T12:46:13;15.70;1.00
23267;DHT22;11802;53.160;8.214;2023-05-02T12:48:38;15.90;1.00
23267;DHT22;11802;53.160;8.214;2023-05-02T12:51:20;16.20;1.00
23267;DHT22;11802;53.160;8.214;2023-05-02T12:53:59;16.00;1.00
23267;DHT22;11802;53.160;8.214;2023-05-02T12:56:28;15.90;1.00
23267;DHT22;11802;53.160;8.214;2023-05-02T12:58:57;15.80;1.00
23267;DHT22;11802;53.160;8.214;2023-05-02T13:01:28;15.50;1.00
23267;DHT22;11802;53.160;8.214;2023-05-02T13:03:54;14.80;1.00
23267;DHT22;11802;53.160;8.214;2023-05-02T13:06:19;14.80;1.00
23267;DHT22;11802;53.160;8.214;2023-05-02T13:08:45;14.30;1.00
23267;DHT22;11802;53.160;8.214;2023-05-02T13:11:10;13.90;1.00
23267;DHT22;11802;53.160;8.214;2023-05-02T13:13:37;14.00;1.00
23267;DHT22;11802;53.160;8.214;2023-05-02T13:16:03;13.90;1.00
23267;DHT22;11802;53.160;8.214;2023-05-02T13:18:29;13.70;1.00
23267;DHT22;11802;53.160;8.214;2023-05-02T13:20:54;13.90;1.00
23267;DHT22;11802;53.160;8.214;2023-05-02T13:23:20;14.10;78.80
23267;DHT22;11802;53.160;8.214;2023-05-02T13:25:45;14.10;1.00
23267;DHT22;11802;53.160;8.214;2023-05-02T13:28:11;14.20;1.00
23267;DHT22;11802;53.160;8.214;2023-05-02T13:30:36;14.60;1.00
23267;DHT22;11802;53.160;8.214;2023-05-02T13:33:02;14.60;1.00
23267;DHT22;11802;53.160;8.214;2023-05-02T13:35:27;14.40;1.00
23267;DHT22;11802;53.160;8.214;2023-05-02T13:37:53;14.40;1.00
23267;DHT22;11802;53.160;8.214;2023-05-02T13:40:18;14.60;1.00
23267;DHT22;11802;53.160;8.214;2023-05-02T13:42:45;14.60;1.00
23267;DHT22;11802;53.160;8.214;2023-05-02T13:45:10;14.80;1.00
23267;DHT22;11802;53.160;8.214;2023-05-02T13:47:36;14.80;1.00
23267;DHT22;11802;53.160;8.214;2023-05-02T13:50:02;14.40;1.00
23267;DHT22;11802;53.160;8.214;2023-05-02T13:52:27;14.00;1.00
23267;DHT22;11802;53.160;8.214;2023-05-02T13:54:53;13.80;1.00
23267;DHT22;11802;53.160;8.214;2023-05-02T13:57:18;14.00;1.00
23267;DHT22;11802;53.160;8.214;2023-05-02T13:59:44;14.20;1.00
23267;DHT22;11802;53.160;8.214;2023-05-02T14:02:10;14.40;1.00
23267;DHT22;11802;53.160;8.214;2023-05-02T14:04:35;14.40;1.00
23267;DHT22;11802;53.160;8.214;2023-05-02T14:07:01;14.70;1.00
23267;DHT22;11802;53.160;8.214;2023-05-02T14:09:26;14.80;1.00
23267;DHT22;11802;53.160;8.214;2023-05-02T14:11:52;15.00;1.00
23267;DHT22;11802;53.160;8.214;2023-05-02T14:14:17;14.90;1.00
23267;DHT22;11802;53.160;8.214;2023-05-02T14:16:43;14.80;1.00
23267;DHT22;11802;53.160;8.214;2023-05-02T14:19:08;14.30;1.00
23267;DHT22;11802;53.160;8.214;2023-05-02T14:21:34;14.00;1.00
23267;DHT22;11802;53.160;8.214;2023-05-02T14:24:01;13.70;1.00
23267;DHT22;11802;53.160;8.214;2023-05-02T14:26:27;13.70;1.00
23267;DHT22;11802;53.160;8.214;2023-05-02T14:28:52;13.70;1.00
23267;DHT22;11802;53.160;8.214;2023-05-02T14:31:18;13.60;99.90
23267;DHT22;11802;53.160;8.214;2023-05-02T14:33:43;13.70;99.90
23267;DHT22;11802;53.160;8.214;2023-05-02T14:36:09;13.90;99.90
23267;DHT22;11802;53.160;8.214;2023-05-02T14:38:34;13.80;1.00
23267;DHT22;11802;53.160;8.214;2023-05-02T14:41:00;13.80;1.00
23267;DHT22;11802;53.160;8.214;2023-05-02T14:43:27;14.00;89.20
23267;DHT22;11802;53.160;8.214;2023-05-02T14:45:53;14.00;34.40
23267;DHT22;11802;53.160;8.214;2023-05-02T14:48:18;14.10;4.20
23267;DHT22;11802;53.160;8.214;2023-05-02T14:50:44;14.30;1.00
23267;DHT22;11802;53.160;8.214;2023-05-02T14:53:09;14.30;1.00
23267;DHT22;11802;53.160;8.214;2023-05-02T14:55:36;14.50;1.00
23267;DHT22;11802;53.160;8.214;2023-05-02T14:58:04;14.50;1.00
23267;DHT22;11802;53.160;8.214;2023-05-02T15:00:29;14.70;1.00
23267;DHT22;11802;53.160;8.214;2023-05-02T15:02:55;14.60;1.00
23267;DHT22;11802;53.160;8.214;2023-05-02T15:05:20;14.40;1.00
23267;DHT22;11802;53.160;8.214;2023-05-02T15:07:46;14.20;1.00
23267;DHT22;11802;53.160;8.214;2023-05-02T15:10:11;14.50;1.00
23267;DHT22;11802;53.160;8.214;2023-05-02T15:12:37;14.60;1.00
23267;DHT22;11802;53.160;8.214;2023-05-02T15:15:02;14.60;1.00
23267;DHT22;11802;53.160;8.214;2023-05-02T15:17:28;14.80;1.00
23267;DHT22;11802;53.160;8.214;2023-05-02T15:19:54;14.90;1.00
23267;DHT22;11802;53.160;8.214;2023-05-02T15:22:19;14.90;1.00
23267;DHT22;11802;53.160;8.214;2023-05-02T15:24:46;14.80;1.00
23267;DHT22;11802;53.160;8.214;2023-05-02T15:27:12;14.70;1.00
23267;DHT22;11802;53.160;8.214;2023-05-02T15:29:37;14.60;1.00
23267;DHT22;11802;53.160;8.214;2023-05-02T15:32:03;14.40;1.00
23267;DHT22;11802;53.160;8.214;2023-05-02T15:34:28;14.40;1.00
23267;DHT22;11802;53.160;8.214;2023-05-02T15:36:54;14.20;1.00
23267;DHT22;11802;53.160;8.214;2023-05-02T15:39:22;14.20;1.00
23267;DHT22;11802;53.160;8.214;2023-05-02T15:41:50;13.90;1.00
23267;DHT22;11802;53.160;8.214;2023-05-02T15:44:17;14.00;1.00
23267;DHT22;11802;53.160;8.214;2023-05-02T15:46:43;14.10;1.00
23267;DHT22;11802;53.160;8.214;2023-05-02T15:49:11;14.00;1.00
23267;DHT22;11802;53.160;8.214;2023-05-02T15:51:36;13.80;1.00
23267;DHT22;11802;53.160;8.214;2023-05-02T15:54:02;13.90;1.00
23267;DHT22;11802;53.160;8.214;2023-05-02T15:56:28;13.80;1.00
23267;DHT22;11802;53.160;8.214;2023-05-02T15:58:53;13.50;1.00
23267;DHT22;11802;53.160;8.214;2023-05-02T16:01:19;13.40;85.90
23267;DHT22;11802;53.160;8.214;2023-05-02T16:03:45;13.50;1.00
23267;DHT22;11802;53.160;8.214;2023-05-02T16:06:11;13.50;1.00
23267;DHT22;11802;53.160;8.214;2023-05-02T16:08:36;13.20;1.00